This is the latest recevied weather packets stored in our database for station/object N4DBJ. If no packets are shown the sender has not sent any weather packets the latest 10 day(s).
| Time | Temp. | Humidity | Pressure | Rain* | Wind** | Luminosity | Snow |
|---|---|---|---|---|---|---|---|
| 1778103247 | 14.44° C | 87% | 1011.3 hPa | 0 mm | - | 64 W/m² | - |
| 1778102944 | 15° C | 88% | 1010.8 hPa | 0 mm | - | 63 W/m² | - |
| 1778102640 | 15° C | 89% | 1010.6 hPa | 0 mm | - | 78 W/m² | - |
| 1778102334 | 15° C | 87% | 1010.6 hPa | 0 mm | - | 73 W/m² | - |
| 1778102031 | 15° C | 88% | 1010.5 hPa | 0 mm | - | 90 W/m² | - |
| 1778101728 | 15° C | 87% | 1010.2 hPa | 0 mm | - | 163 W/m² | - |
| 1778101425 | 15° C | 89% | 1010.5 hPa | 0 mm | - | 150 W/m² | - |
| 1778101122 | 15° C | 87% | 1010.3 hPa | 0 mm | - | 184 W/m² | - |
| 1778100818 | 15° C | 88% | 1010.5 hPa | 0 mm | - | 173 W/m² | - |
| 1778100515 | 14.44° C | 86% | 1011.2 hPa | 0 mm | - | 127 W/m² | - |
| 1778100212 | 15° C | 88% | 1011.4 hPa | 0 mm | - | 92 W/m² | - |
| 1778099910 | 15° C | 88% | 1011.5 hPa | 0 mm | - | 54 W/m² | - |
| 1778099607 | 15° C | 88% | 1011.2 hPa | 0 mm | - | 71 W/m² | - |
| 1778099303 | 15° C | 88% | 1010.8 hPa | 0 mm | - | 83 W/m² | - |
| 1778099001 | 15° C | 86% | 1011.4 hPa | 0 mm | - | 90 W/m² | - |
| 1778098697 | 15.56° C | 85% | 1011.4 hPa | 0 mm | - | 88 W/m² | - |
| 1778098395 | 15.56° C | 86% | 1011.1 hPa | 0 mm | - | 133 W/m² | - |
| 1778098091 | 15.56° C | 84% | 1011.1 hPa | 0 mm | - | 124 W/m² | - |
| 1778097787 | 15.56° C | 86% | 1010.6 hPa | 0 mm | - | 180 W/m² | - |
| 1778097484 | 15.56° C | 86% | 1011.1 hPa | 0 mm | - | 168 W/m² | - |
| 1778097181 | 15.56° C | 86% | 1011.1 hPa | 0 mm | - | 127 W/m² | - |
| 1778096878 | 15° C | 90% | 1010.4 hPa | 0 mm | - | 370 W/m² | - |
| 1778096574 | 14.44° C | 90% | 1010.7 hPa | 0 mm | - | 217 W/m² | - |
| 1778096272 | 15° C | 90% | 1011 hPa | 0 mm | - | 64 W/m² | - |
| 1778095969 | 15° C | 91% | 1011.1 hPa | 0 mm | - | 105 W/m² | - |
* Rain latest hour (hover to see other rain measurements)
** Current wind speed in m/s (hover to see current wind gust speed)